Mill Village, Pennsylvania
Current Conditions -  °F | °C
As of 9:18 AM on Tuesday 27 Jan 2015 (Local Time) from KERI Reporting Station
Light Snow Light Snow  
Wind Chill:   Ceiling: 1000
Heat Index: 20°   Visibility: 0.75mi
Dew Point: 15°   Wind: 9mph
Humidity: 81%   Direction: 20°NNE
Pressure: 30"   Gusts: NA
Location:  41.88°N, 79.97°W
Report Text: KERI 271418Z 02008KT 3/4SM R06/6000VP6000FT -SN BKN010 BKN017 OVC024 M07/M09 A3000 RMK AO2 P0001 T10671094
Loading
Personal Weather Stations






























Interactive Weather Map New forecast layout! Learn more

10-Day Weather Forecast

Advertisements
Track Severe Weather on mobile